createdAt,value
2018-10-03T00:00:58.264Z,9.07
2018-10-03T00:03:29.787Z,9.07
2018-10-03T00:05:59.158Z,9.08
2018-10-03T00:08:28.502Z,9.18
2018-10-03T00:10:57.954Z,9.28
2018-10-03T00:13:28.745Z,9.33
2018-10-03T00:15:58.113Z,9.33
2018-10-03T00:18:27.985Z,9.30
2018-10-03T00:20:57.350Z,9.24
2018-10-03T00:23:27.901Z,9.20
2018-10-03T00:25:57.459Z,9.20
2018-10-03T00:28:27.008Z,9.16
2018-10-03T00:30:56.407Z,9.23
2018-10-03T00:33:25.874Z,9.22
2018-10-03T00:35:57.582Z,9.18
2018-10-03T00:38:27.690Z,9.22
2018-10-03T00:40:57.707Z,9.29
2018-10-03T00:43:27.208Z,9.29
2018-10-03T00:46:00.177Z,9.37
2018-10-03T00:48:30.167Z,9.38
2018-10-03T00:51:00.454Z,9.33
2018-10-03T00:53:29.874Z,9.24
2018-10-03T00:56:01.287Z,9.20
2018-10-03T00:58:31.412Z,9.12
2018-10-03T01:04:09.510Z,9.02
2018-10-03T01:06:39.230Z,8.98
2018-10-03T01:09:08.729Z,8.97
2018-10-03T01:11:39.481Z,8.96
2018-10-03T01:14:09.097Z,8.98
2018-10-03T01:16:39.008Z,8.97
2018-10-03T01:19:09.116Z,8.95
2018-10-03T01:21:38.526Z,8.89
2018-10-03T01:24:08.577Z,9.02
2018-10-03T01:26:41.969Z,9.01
2018-10-03T01:29:11.753Z,8.98
2018-10-03T01:31:41.333Z,9.00
2018-10-03T01:34:12.791Z,8.98
2018-10-03T01:36:42.275Z,8.94
2018-10-03T01:39:11.830Z,8.99
2018-10-03T01:41:42.240Z,9.05
2018-10-03T01:44:11.963Z,9.20
2018-10-03T01:46:41.555Z,9.08
2018-10-03T01:49:11.831Z,9.30
2018-10-03T01:51:46.877Z,9.29
2018-10-03T01:54:17.223Z,9.37
2018-10-03T01:56:46.674Z,9.57
2018-10-03T01:59:16.632Z,9.62
2018-10-03T02:01:46.694Z,9.74
2018-10-03T02:04:19.630Z,9.79
2018-10-03T02:06:48.981Z,9.86
2018-10-03T02:09:18.368Z,9.90
2018-10-03T02:11:48.285Z,10.03
2018-10-03T02:14:19.016Z,9.89
2018-10-03T02:16:49.886Z,9.74
2018-10-03T02:19:21.449Z,9.66
2018-10-03T02:21:50.889Z,9.46
2018-10-03T02:24:20.590Z,9.37
2018-10-03T02:26:49.990Z,9.34
2018-10-03T02:29:20.045Z,9.28
2018-10-03T02:31:49.481Z,9.25
2018-10-03T02:34:24.175Z,9.15
2018-10-03T02:36:53.747Z,9.22
2018-10-03T02:39:46.621Z,9.18
2018-10-03T02:42:16.206Z,9.22
2018-10-03T02:44:45.675Z,9.27
2018-10-03T02:47:15.620Z,9.20
2018-10-03T02:49:45.386Z,9.27
2018-10-03T02:52:17.149Z,9.33
2018-10-03T02:54:46.506Z,9.41
2018-10-03T02:57:15.913Z,9.40
2018-10-03T02:59:45.377Z,9.45
2018-10-03T03:02:14.795Z,9.37
2018-10-03T03:04:44.212Z,9.35
2018-10-03T03:07:14.197Z,9.34
2018-10-03T03:09:43.653Z,9.27
2018-10-03T03:12:13.108Z,9.37
2018-10-03T03:14:42.549Z,9.33
2018-10-03T03:17:12.014Z,9.37
2018-10-03T03:19:41.463Z,9.31
2018-10-03T03:22:10.917Z,9.28
2018-10-03T03:24:40.402Z,9.26
2018-10-03T03:27:09.821Z,9.21
2018-10-03T03:29:39.254Z,9.18
2018-10-03T03:32:08.633Z,9.19
2018-10-03T03:34:37.977Z,9.16
2018-10-03T03:37:08.665Z,9.15
2018-10-03T03:39:38.086Z,9.16
2018-10-03T03:42:08.034Z,9.25
2018-10-03T03:44:37.423Z,9.24
2018-10-03T03:47:07.031Z,9.18
2018-10-03T03:49:36.434Z,9.15
2018-10-03T03:52:06.167Z,9.17
2018-10-03T03:54:35.698Z,9.10
2018-10-03T03:57:05.086Z,9.06
2018-10-03T03:59:34.467Z,9.04
2018-10-03T04:02:04.014Z,9.02
2018-10-03T04:04:33.443Z,9.05
2018-10-03T04:07:02.830Z,9.06
2018-10-03T04:09:32.878Z,9.02
2018-10-03T04:12:02.314Z,9.02
2018-10-03T04:14:32.048Z,9.03
2018-10-03T04:17:01.531Z,9.02
2018-10-03T04:19:30.886Z,9.00
2018-10-03T04:22:02.060Z,9.05
2018-10-03T04:24:31.485Z,8.96
2018-10-03T04:27:01.520Z,8.97
2018-10-03T04:29:30.849Z,8.98
2018-10-03T04:32:01.096Z,9.04
2018-10-03T04:34:30.806Z,9.02
2018-10-03T04:37:00.250Z,9.05
2018-10-03T04:39:30.227Z,9.08
2018-10-03T04:41:59.574Z,9.03
2018-10-03T04:44:28.960Z,9.08
2018-10-03T04:46:58.757Z,9.12
2018-10-03T04:49:28.193Z,9.11
2018-10-03T04:51:57.574Z,9.14
2018-10-03T04:54:27.111Z,9.15
2018-10-03T04:56:56.522Z,9.18
2018-10-03T04:59:25.995Z,9.26
2018-10-03T05:01:59.889Z,9.32
2018-10-03T05:04:29.369Z,9.32
2018-10-03T05:06:58.894Z,9.31
2018-10-03T05:09:28.336Z,9.31
2018-10-03T05:11:57.811Z,9.29
2018-10-03T05:14:28.423Z,9.29
2018-10-03T05:16:58.768Z,9.25
2018-10-03T05:19:28.178Z,9.20
2018-10-03T05:21:57.718Z,9.22
2018-10-03T05:24:27.063Z,9.12
2018-10-03T05:26:56.814Z,9.07
2018-10-03T05:29:26.185Z,9.03
2018-10-03T05:31:55.554Z,9.05
2018-10-03T05:34:24.985Z,9.02
2018-10-03T05:36:54.370Z,9.07
2018-10-03T05:39:23.860Z,9.12
2018-10-03T05:41:53.356Z,9.12
2018-10-03T05:44:22.743Z,9.14
2018-10-03T05:46:52.142Z,9.13
2018-10-03T05:49:21.490Z,9.17
2018-10-03T05:51:50.845Z,9.16
2018-10-03T05:54:20.335Z,9.18
2018-10-03T05:56:49.699Z,9.13
2018-10-03T05:59:19.227Z,9.11
2018-10-03T06:01:50.414Z,9.08
2018-10-03T06:04:21.311Z,9.05
2018-10-03T06:06:54.336Z,9.03
2018-10-03T06:09:24.504Z,9.03
2018-10-03T06:11:53.950Z,9.12
2018-10-03T06:14:23.378Z,9.16
2018-10-03T06:16:54.101Z,9.20
2018-10-03T06:19:24.554Z,9.20
2018-10-03T06:21:55.418Z,9.25
2018-10-03T06:24:24.861Z,9.29
2018-10-03T06:26:54.276Z,9.27
2018-10-03T06:29:24.465Z,9.31
2018-10-03T06:31:54.946Z,9.31
2018-10-03T06:34:25.218Z,9.31
2018-10-03T06:36:54.773Z,9.39
2018-10-03T06:39:24.336Z,9.39
2018-10-03T06:41:54.008Z,9.43
2018-10-03T06:44:23.378Z,9.46
2018-10-03T06:46:52.896Z,9.53
2018-10-03T06:49:23.451Z,9.55
2018-10-03T06:51:54.422Z,9.59
2018-10-03T06:54:24.266Z,9.63
2018-10-03T06:56:54.292Z,9.70
2018-10-03T06:59:24.531Z,9.71
2018-10-03T07:01:53.996Z,9.64
2018-10-03T07:04:23.481Z,9.68
2018-10-03T07:06:54.386Z,9.71
2018-10-03T07:09:23.813Z,9.77
2018-10-03T07:11:53.285Z,9.84
2018-10-03T07:14:22.645Z,9.83
2018-10-03T07:16:52.102Z,9.90
2018-10-03T07:19:21.901Z,9.91
2018-10-03T07:21:51.385Z,9.95
2018-10-03T07:24:21.114Z,10.00
2018-10-03T07:26:52.510Z,10.00
2018-10-03T07:29:21.879Z,10.04
2018-10-03T07:31:53.825Z,10.09
2018-10-03T07:34:23.290Z,10.13
2018-10-03T07:36:52.770Z,10.14
2018-10-03T07:39:22.122Z,10.20
2018-10-03T07:41:52.538Z,10.30
2018-10-03T07:44:22.326Z,10.44
2018-10-03T07:46:51.807Z,10.46
2018-10-03T07:49:21.997Z,10.47
2018-10-03T07:51:51.441Z,10.54
2018-10-03T07:54:20.821Z,10.53
2018-10-03T07:56:51.113Z,10.61
2018-10-03T07:59:23.861Z,10.63
2018-10-03T08:01:53.217Z,10.77
2018-10-03T08:04:25.626Z,10.80
2018-10-03T08:06:56.038Z,10.87
2018-10-03T08:09:25.490Z,10.97
2018-10-03T08:11:56.096Z,11.03
2018-10-03T08:14:26.222Z,11.07
2018-10-03T08:16:55.735Z,11.15
2018-10-03T08:19:25.923Z,11.26
2018-10-03T08:21:55.993Z,11.27
2018-10-03T08:24:25.918Z,11.38
2018-10-03T08:26:55.370Z,11.35
2018-10-03T08:29:25.167Z,11.44
2018-10-03T08:31:54.593Z,11.47
2018-10-03T08:34:24.014Z,11.45
2018-10-03T08:36:54.446Z,11.43
2018-10-03T08:39:23.842Z,11.44
2018-10-03T08:41:53.212Z,11.57
2018-10-03T08:44:22.658Z,11.66
2018-10-03T08:46:52.154Z,11.75
2018-10-03T08:49:22.483Z,11.75
2018-10-03T08:51:51.933Z,11.81
2018-10-03T08:54:21.558Z,12.01
2018-10-03T08:56:51.026Z,12.07
2018-10-03T08:59:20.388Z,12.12
2018-10-03T09:01:50.272Z,12.03
2018-10-03T09:05:48.705Z,12.00
2018-10-03T09:08:20.091Z,12.06
2018-10-03T09:10:49.938Z,12.06
2018-10-03T09:13:20.465Z,12.29
2018-10-03T09:15:49.882Z,12.30
2018-10-03T09:18:19.418Z,12.32
2018-10-03T09:20:48.924Z,12.31
2018-10-03T09:23:19.163Z,12.05
2018-10-03T09:25:49.474Z,11.87
2018-10-03T09:28:19.891Z,11.73
2018-10-03T09:30:49.251Z,11.63
2018-10-03T09:33:19.510Z,11.43
2018-10-03T09:35:49.655Z,11.39
2018-10-03T09:38:20.123Z,11.52
2018-10-03T09:40:49.590Z,11.72
2018-10-03T09:43:20.174Z,11.96
2018-10-03T09:45:49.929Z,12.05
2018-10-03T09:48:19.285Z,12.04
2018-10-03T09:50:48.859Z,12.09
2018-10-03T09:53:19.230Z,12.21
2018-10-03T09:55:48.803Z,12.29
2018-10-03T09:58:18.154Z,12.37
2018-10-03T10:00:53.041Z,12.47
2018-10-03T10:03:22.437Z,12.63
2018-10-03T10:05:51.830Z,12.63
2018-10-03T10:08:22.646Z,12.68
2018-10-03T10:10:53.287Z,12.69
2018-10-03T10:13:23.040Z,12.57
2018-10-03T10:15:53.082Z,12.50
2018-10-03T10:18:22.777Z,12.49
2018-10-03T10:20:52.284Z,12.49
2018-10-03T10:23:21.782Z,12.55
2018-10-03T10:27:05.332Z,12.61
2018-10-03T10:29:36.190Z,12.71
2018-10-03T10:32:05.874Z,12.74
2018-10-03T10:34:35.317Z,12.85
2018-10-03T10:37:05.754Z,12.96
2018-10-03T10:39:35.642Z,13.16
2018-10-03T10:42:06.017Z,13.11
2018-10-03T10:44:35.498Z,13.03
2018-10-03T10:47:05.176Z,13.04
2018-10-03T10:49:53.105Z,12.97
2018-10-03T10:52:23.001Z,12.51
2018-10-03T10:54:53.838Z,12.29
2018-10-03T10:57:23.578Z,12.24
2018-10-03T10:59:53.006Z,12.40
2018-10-03T11:02:22.946Z,12.53
2018-10-03T11:04:54.145Z,12.59
2018-10-03T11:07:23.726Z,12.74
2018-10-03T11:09:53.190Z,12.83
2018-10-03T11:12:26.905Z,12.78
2018-10-03T11:14:57.575Z,12.81
2018-10-03T11:17:29.053Z,12.85
2018-10-03T11:19:58.488Z,13.01
2018-10-03T11:22:29.765Z,13.16
2018-10-03T11:24:59.599Z,13.26
2018-10-03T11:27:29.408Z,13.17
2018-10-03T11:29:58.787Z,13.18
2018-10-03T11:32:30.389Z,12.97
2018-10-03T11:34:59.839Z,13.01
2018-10-03T11:38:29.498Z,13.11
2018-10-03T11:40:59.062Z,12.98
2018-10-03T11:43:28.660Z,13.02
2018-10-03T11:46:00.656Z,13.11
2018-10-03T11:48:30.109Z,13.26
2018-10-03T11:50:59.547Z,13.26
2018-10-03T11:53:29.584Z,13.31
2018-10-03T11:55:59.075Z,13.25
2018-10-03T11:58:29.418Z,13.15
2018-10-03T12:00:58.900Z,13.33
2018-10-03T12:03:29.375Z,13.41
2018-10-03T12:05:59.639Z,13.66
2018-10-03T12:08:30.279Z,13.71
2018-10-03T12:10:59.664Z,13.43
2018-10-03T12:13:29.098Z,13.25
2018-10-03T12:15:59.644Z,13.19
2018-10-03T12:18:29.232Z,13.21
2018-10-03T12:20:59.481Z,13.37
2018-10-03T12:23:29.434Z,13.34
2018-10-03T12:26:05.976Z,13.28
2018-10-03T12:28:35.789Z,13.65
2018-10-03T12:31:05.335Z,14.30
2018-10-03T12:33:36.332Z,15.19
2018-10-03T12:36:06.162Z,14.84
2018-10-03T12:38:36.951Z,14.10
2018-10-03T12:41:06.734Z,14.50
2018-10-03T12:43:36.706Z,15.59
2018-10-03T12:46:06.214Z,16.62
2018-10-03T12:48:35.836Z,15.88
2018-10-03T12:51:07.627Z,15.82
2018-10-03T12:53:37.561Z,16.57
2018-10-03T12:56:07.169Z,15.93
2018-10-03T12:58:36.631Z,15.66
2018-10-03T13:01:07.055Z,15.84
2018-10-03T13:03:36.580Z,16.38
2018-10-03T13:06:06.106Z,16.92
2018-10-03T13:08:35.671Z,16.20
2018-10-03T13:11:06.066Z,15.47
2018-10-03T13:16:32.871Z,14.03
2018-10-03T13:19:03.139Z,14.41
2018-10-03T13:21:33.100Z,14.80
2018-10-03T13:24:05.938Z,15.79
2018-10-03T13:26:36.807Z,16.98
2018-10-03T13:29:06.575Z,15.91
2018-10-03T13:31:37.130Z,16.86
2018-10-03T13:34:07.592Z,17.69
2018-10-03T13:36:37.100Z,16.98
2018-10-03T13:39:11.197Z,16.93
2018-10-03T13:41:40.631Z,17.29
2018-10-03T13:44:10.089Z,16.48
2018-10-03T13:46:40.511Z,16.61
2018-10-03T13:49:11.559Z,15.59
2018-10-03T13:51:41.668Z,15.78
2018-10-03T13:54:11.067Z,15.44
2018-10-03T13:56:41.379Z,15.59
2018-10-03T13:59:10.802Z,14.81
2018-10-03T14:01:41.579Z,14.16
2018-10-03T14:04:11.283Z,14.45
2018-10-03T14:06:40.782Z,16.16
2018-10-03T14:09:11.258Z,16.25
2018-10-03T14:11:41.532Z,16.62
2018-10-03T14:14:11.778Z,16.63
2018-10-03T14:16:41.370Z,16.81
2018-10-03T14:19:11.220Z,16.39
2018-10-03T14:21:40.625Z,16.14
2018-10-03T14:24:15.479Z,15.67
2018-10-03T14:26:44.934Z,15.49
2018-10-03T14:29:14.731Z,15.49
2018-10-03T14:31:45.121Z,15.73
2018-10-03T14:34:14.572Z,16.30
2018-10-03T14:36:45.018Z,15.77
2018-10-03T14:39:15.108Z,15.07
2018-10-03T14:41:45.655Z,15.09
2018-10-03T14:44:15.285Z,14.52
2018-10-03T14:46:45.173Z,14.22
2018-10-03T14:49:19.795Z,14.15
2018-10-03T14:51:49.727Z,13.84
2018-10-03T14:54:23.637Z,13.73
2018-10-03T14:56:53.183Z,13.64
2018-10-03T14:59:23.546Z,13.40
2018-10-03T15:01:53.531Z,13.51
2018-10-03T15:04:23.389Z,13.65
2018-10-03T15:06:53.121Z,13.73
2018-10-03T15:09:22.654Z,13.72
2018-10-03T15:14:51.238Z,13.68
2018-10-03T15:17:24.115Z,13.48
2018-10-03T15:19:53.820Z,13.48
2018-10-03T15:22:24.686Z,13.57
2018-10-03T15:24:54.633Z,13.61
2018-10-03T15:27:24.609Z,13.57
2018-10-03T15:29:54.269Z,13.50
2018-10-03T15:32:24.987Z,13.31
2018-10-03T15:34:55.313Z,13.23
2018-10-03T15:37:27.622Z,13.08
2018-10-03T15:39:57.223Z,13.03
2018-10-03T15:42:26.774Z,12.82
2018-10-03T15:44:57.686Z,12.80
2018-10-03T15:47:27.239Z,12.82
2018-10-03T15:49:56.715Z,12.77
2018-10-03T15:52:28.465Z,12.71
2018-10-03T15:54:58.386Z,12.68
2018-10-03T15:57:28.098Z,12.66
2018-10-03T16:02:55.138Z,12.61
2018-10-03T16:05:26.898Z,12.59
2018-10-03T16:07:56.439Z,12.51
2018-10-03T16:10:25.926Z,12.37
2018-10-03T16:12:55.614Z,12.33
2018-10-03T16:15:25.142Z,12.37
2018-10-03T16:17:55.773Z,12.23
2018-10-03T16:20:25.175Z,12.10
2018-10-03T16:22:55.141Z,12.05
2018-10-03T16:25:26.282Z,12.05
2018-10-03T16:27:56.338Z,12.03
2018-10-03T16:30:25.806Z,12.07
2018-10-03T16:32:55.183Z,12.13
2018-10-03T16:35:24.699Z,12.11
2018-10-03T16:37:54.824Z,12.04
2018-10-03T16:40:25.736Z,12.02
2018-10-03T16:42:57.186Z,12.02
2018-10-03T16:45:26.817Z,11.94
2018-10-03T16:47:56.294Z,11.92
2018-10-03T16:50:26.721Z,11.93
2018-10-03T16:52:56.347Z,11.90
2018-10-03T16:55:27.086Z,11.90
2018-10-03T16:57:56.787Z,11.88
2018-10-03T17:00:26.214Z,11.83
2018-10-03T17:02:55.881Z,11.80
2018-10-03T17:05:25.323Z,11.70
2018-10-03T17:07:54.792Z,11.66
2018-10-03T17:10:24.435Z,11.67
2018-10-03T17:12:55.557Z,11.66
2018-10-03T17:15:25.028Z,11.59
2018-10-03T17:17:54.791Z,11.60
2018-10-03T17:20:24.214Z,11.48
2018-10-03T17:22:53.721Z,11.44
2018-10-03T17:25:23.205Z,11.41
2018-10-03T17:27:53.725Z,11.35
2018-10-03T17:30:23.183Z,11.35
2018-10-03T17:32:52.591Z,11.34
2018-10-03T17:35:22.574Z,11.28
2018-10-03T17:37:57.186Z,11.17
2018-10-03T17:40:26.593Z,11.15
2018-10-03T17:42:56.306Z,11.18
2018-10-03T17:45:25.677Z,11.12
2018-10-03T17:47:55.147Z,11.10
2018-10-03T17:50:24.606Z,11.17
2018-10-03T17:52:54.504Z,11.15
2018-10-03T17:55:24.889Z,11.12
2018-10-03T17:57:55.403Z,11.13
2018-10-03T18:00:25.546Z,11.13
2018-10-03T18:02:54.923Z,11.11
2018-10-03T18:05:24.318Z,11.08
2018-10-03T18:11:04.278Z,11.03
2018-10-03T18:13:33.813Z,10.95
2018-10-03T18:16:03.109Z,10.90
2018-10-03T18:18:32.642Z,10.84
2018-10-03T18:21:02.002Z,10.78
2018-10-03T18:23:31.416Z,10.77
2018-10-03T18:26:01.161Z,10.80
2018-10-03T18:28:30.702Z,10.76
2018-10-03T18:31:00.193Z,10.68
2018-10-03T18:33:29.707Z,10.65
2018-10-03T18:35:59.124Z,10.60
2018-10-03T18:38:29.157Z,10.56
2018-10-03T18:40:58.614Z,10.51
2018-10-03T18:43:28.017Z,10.51
2018-10-03T18:45:57.415Z,10.52
2018-10-03T18:48:27.401Z,10.53
2018-10-03T18:50:57.054Z,10.59
2018-10-03T18:53:26.418Z,10.62
2018-10-03T18:55:56.834Z,10.69
2018-10-03T18:58:26.281Z,10.65
2018-10-03T19:00:55.805Z,10.65
2018-10-03T19:03:25.295Z,10.65
2018-10-03T19:05:54.867Z,10.68
2018-10-03T19:08:24.314Z,10.70
2018-10-03T19:10:53.693Z,10.65
2018-10-03T19:13:24.006Z,10.63
2018-10-03T19:15:53.482Z,10.66
2018-10-03T19:18:22.913Z,10.60
2018-10-03T19:20:52.417Z,10.56
2018-10-03T19:23:21.917Z,10.57
2018-10-03T19:25:51.328Z,10.60
2018-10-03T19:28:20.910Z,10.58
2018-10-03T19:30:50.390Z,10.57
2018-10-03T19:33:20.341Z,10.61
2018-10-03T19:35:49.999Z,10.55
2018-10-03T19:38:19.284Z,10.62
2018-10-03T19:40:49.748Z,10.62
2018-10-03T19:43:19.239Z,10.57
2018-10-03T19:45:48.684Z,10.60
2018-10-03T19:48:18.251Z,10.58
2018-10-03T19:50:48.138Z,10.60
2018-10-03T19:53:21.650Z,10.55
2018-10-03T19:55:51.048Z,10.52
2018-10-03T19:58:20.464Z,10.48
2018-10-03T20:00:49.955Z,10.44
2018-10-03T20:03:19.458Z,10.39
2018-10-03T20:05:48.967Z,10.38
2018-10-03T20:08:18.666Z,10.35
2018-10-03T20:10:48.430Z,10.33
2018-10-03T20:13:17.842Z,10.31
2018-10-03T20:15:47.369Z,10.35
2018-10-03T20:18:16.777Z,10.42
2018-10-03T20:20:46.844Z,10.44
2018-10-03T20:23:16.218Z,10.42
2018-10-03T20:25:45.636Z,10.39
2018-10-03T20:28:15.840Z,10.39
2018-10-03T20:30:45.542Z,10.40
2018-10-03T20:33:15.111Z,10.37
2018-10-03T20:35:44.610Z,10.46
2018-10-03T20:38:14.006Z,10.47
2018-10-03T20:40:44.322Z,10.47
2018-10-03T20:43:13.854Z,10.58
2018-10-03T20:45:43.206Z,10.62
2018-10-03T20:48:12.690Z,10.64
2018-10-03T20:50:42.047Z,10.57
2018-10-03T20:53:11.682Z,10.58
2018-10-03T20:55:41.027Z,10.64
2018-10-03T20:58:10.385Z,10.59
2018-10-03T21:00:39.790Z,10.59
2018-10-03T21:03:09.249Z,10.63
2018-10-03T21:05:38.642Z,10.68
2018-10-03T21:08:08.080Z,10.68
2018-10-03T21:10:37.724Z,10.66
2018-10-03T21:13:07.218Z,10.64
2018-10-03T21:15:36.661Z,10.67
2018-10-03T21:18:06.093Z,10.70
2018-10-03T21:20:35.523Z,10.67
2018-10-03T21:23:04.879Z,10.80
2018-10-03T21:25:34.331Z,10.73
2018-10-03T21:28:03.817Z,10.77
2018-10-03T21:30:33.261Z,10.79
2018-10-03T21:33:02.726Z,10.80
2018-10-03T21:35:32.222Z,10.72
2018-10-03T21:38:01.749Z,10.63
2018-10-03T21:40:31.118Z,10.61
2018-10-03T21:43:00.555Z,10.56
2018-10-03T21:45:29.939Z,10.58
2018-10-03T21:47:59.373Z,10.64
2018-10-03T21:50:28.775Z,10.71
2018-10-03T21:52:58.184Z,10.68
2018-10-03T21:55:27.757Z,10.68
2018-10-03T21:57:57.206Z,10.67
2018-10-03T22:00:31.682Z,10.74
2018-10-03T22:03:01.164Z,10.69
2018-10-03T22:05:30.590Z,10.68
2018-10-03T22:07:59.986Z,10.70
2018-10-03T22:10:29.438Z,10.64
2018-10-03T22:12:58.826Z,10.66
2018-10-03T22:15:28.242Z,10.63
2018-10-03T22:17:57.722Z,10.69
2018-10-03T22:20:27.167Z,10.67
2018-10-03T22:22:56.566Z,10.70
2018-10-03T22:25:25.923Z,10.68
2018-10-03T22:27:55.403Z,10.62
2018-10-03T22:30:24.818Z,10.63
2018-10-03T22:32:54.337Z,10.56
2018-10-03T22:35:23.743Z,10.55
2018-10-03T22:37:53.538Z,10.50
2018-10-03T22:40:23.009Z,10.54
2018-10-03T22:42:52.369Z,10.53
2018-10-03T22:45:21.858Z,10.48
2018-10-03T22:47:51.397Z,10.44
2018-10-03T22:50:20.838Z,10.39
2018-10-03T22:52:50.177Z,10.36
2018-10-03T22:55:19.648Z,10.30
2018-10-03T22:57:49.081Z,10.29
2018-10-03T23:00:18.482Z,10.22
2018-10-03T23:02:47.937Z,10.23
2018-10-03T23:05:17.296Z,10.14
2018-10-03T23:07:46.792Z,10.08
2018-10-03T23:10:16.236Z,10.03
2018-10-03T23:12:45.686Z,10.00
2018-10-03T23:15:15.086Z,9.97
2018-10-03T23:17:44.412Z,9.98
2018-10-03T23:20:13.870Z,9.89
2018-10-03T23:22:43.307Z,9.88
2018-10-03T23:25:12.785Z,9.85
2018-10-03T23:27:42.167Z,9.83
2018-10-03T23:30:11.563Z,9.82
2018-10-03T23:32:41.077Z,9.82
2018-10-03T23:35:10.514Z,9.87
2018-10-03T23:37:39.999Z,9.82
2018-10-03T23:40:09.326Z,9.84
2018-10-03T23:42:38.850Z,9.84
2018-10-03T23:45:08.297Z,9.86
2018-10-03T23:47:37.798Z,9.83
2018-10-03T23:50:07.222Z,9.74
2018-10-03T23:52:36.615Z,9.74
2018-10-03T23:55:06.130Z,9.67
2018-10-03T23:57:35.502Z,9.68
